sensor_id;sensor_type;location;lat;lon;timestamp;P1;durP1;ratioP1;P2;durP2;ratioP2
16189;SDS011;41754;51.498;7.540;2023-01-08T00:00:06;1.85;;;1.75;;
16189;SDS011;41754;51.498;7.540;2023-01-08T00:02:38;2.15;;;1.70;;
16189;SDS011;41754;51.498;7.540;2023-01-08T00:05:06;2.30;;;1.95;;
16189;SDS011;41754;51.498;7.540;2023-01-08T00:07:36;2.15;;;1.55;;
16189;SDS011;41754;51.498;7.540;2023-01-08T00:10:04;2.45;;;1.70;;
16189;SDS011;41754;51.498;7.540;2023-01-08T00:12:33;1.80;;;1.30;;
16189;SDS011;41754;51.498;7.540;2023-01-08T00:15:02;2.33;;;1.50;;
16189;SDS011;41754;51.498;7.540;2023-01-08T00:17:30;2.90;;;1.60;;
16189;SDS011;41754;51.498;7.540;2023-01-08T00:19:58;2.03;;;1.33;;
16189;SDS011;41754;51.498;7.540;2023-01-08T00:22:25;1.95;;;1.55;;
16189;SDS011;41754;51.498;7.540;2023-01-08T00:24:53;2.58;;;1.42;;
16189;SDS011;41754;51.498;7.540;2023-01-08T00:27:21;1.70;;;1.60;;
16189;SDS011;41754;51.498;7.540;2023-01-08T00:29:49;1.45;;;1.35;;
16189;SDS011;41754;51.498;7.540;2023-01-08T00:32:18;4.00;;;1.60;;
16189;SDS011;41754;51.498;7.540;2023-01-08T00:34:46;2.50;;;1.65;;
16189;SDS011;41754;51.498;7.540;2023-01-08T00:37:14;1.60;;;1.50;;
16189;SDS011;41754;51.498;7.540;2023-01-08T00:39:44;2.08;;;1.70;;
16189;SDS011;41754;51.498;7.540;2023-01-08T00:42:11;1.58;;;1.48;;
16189;SDS011;41754;51.498;7.540;2023-01-08T00:44:39;1.65;;;1.42;;
16189;SDS011;41754;51.498;7.540;2023-01-08T00:47:07;2.20;;;1.63;;
16189;SDS011;41754;51.498;7.540;2023-01-08T00:49:36;1.83;;;1.20;;
16189;SDS011;41754;51.498;7.540;2023-01-08T00:52:04;1.30;;;1.20;;
16189;SDS011;41754;51.498;7.540;2023-01-08T00:54:33;1.40;;;1.30;;
16189;SDS011;41754;51.498;7.540;2023-01-08T00:57:00;1.80;;;1.30;;
16189;SDS011;41754;51.498;7.540;2023-01-08T00:59:28;1.42;;;1.33;;
16189;SDS011;41754;51.498;7.540;2023-01-08T01:01:56;1.33;;;1.23;;
16189;SDS011;41754;51.498;7.540;2023-01-08T01:04:24;1.75;;;1.30;;
16189;SDS011;41754;51.498;7.540;2023-01-08T01:06:53;1.70;;;1.10;;
16189;SDS011;41754;51.498;7.540;2023-01-08T01:09:21;1.17;;;1.10;;
16189;SDS011;41754;51.498;7.540;2023-01-08T01:11:49;1.67;;;1.30;;
16189;SDS011;41754;51.498;7.540;2023-01-08T01:14:17;1.30;;;1.20;;
16189;SDS011;41754;51.498;7.540;2023-01-08T01:16:45;1.50;;;1.40;;
16189;SDS011;41754;51.498;7.540;2023-01-08T01:19:14;4.50;;;1.60;;
16189;SDS011;41754;51.498;7.540;2023-01-08T01:21:42;2.08;;;1.58;;
16189;SDS011;41754;51.498;7.540;2023-01-08T01:24:12;3.03;;;1.38;;
16189;SDS011;41754;51.498;7.540;2023-01-08T01:26:41;2.45;;;1.27;;
16189;SDS011;41754;51.498;7.540;2023-01-08T01:29:08;1.88;;;1.60;;
16189;SDS011;41754;51.498;7.540;2023-01-08T01:31:36;1.40;;;1.30;;
16189;SDS011;41754;51.498;7.540;2023-01-08T01:34:04;1.52;;;1.40;;
16189;SDS011;41754;51.498;7.540;2023-01-08T01:36:32;1.30;;;1.20;;
16189;SDS011;41754;51.498;7.540;2023-01-08T01:38:59;1.38;;;1.23;;
16189;SDS011;41754;51.498;7.540;2023-01-08T01:41:31;2.10;;;1.50;;
16189;SDS011;41754;51.498;7.540;2023-01-08T01:47:03;1.45;;;1.35;;
16189;SDS011;41754;51.498;7.540;2023-01-08T01:49:37;1.15;;;1.00;;
16189;SDS011;41754;51.498;7.540;2023-01-08T01:52:07;1.17;;;1.08;;
16189;SDS011;41754;51.498;7.540;2023-01-08T01:54:36;2.28;;;1.23;;
16189;SDS011;41754;51.498;7.540;2023-01-08T01:57:05;1.92;;;1.20;;
16189;SDS011;41754;51.498;7.540;2023-01-08T01:59:34;2.08;;;1.10;;
16189;SDS011;41754;51.498;7.540;2023-01-08T02:02:02;1.63;;;1.20;;
16189;SDS011;41754;51.498;7.540;2023-01-08T02:04:30;1.40;;;1.30;;
16189;SDS011;41754;51.498;7.540;2023-01-08T02:06:59;3.00;;;1.25;;
16189;SDS011;41754;51.498;7.540;2023-01-08T02:09:37;1.38;;;1.25;;
16189;SDS011;41754;51.498;7.540;2023-01-08T02:12:12;2.03;;;1.45;;
16189;SDS011;41754;51.498;7.540;2023-01-08T02:14:50;1.33;;;1.20;;
16189;SDS011;41754;51.498;7.540;2023-01-08T02:17:27;2.22;;;1.52;;
16189;SDS011;41754;51.498;7.540;2023-01-08T02:20:06;1.58;;;1.42;;
16189;SDS011;41754;51.498;7.540;2023-01-08T02:22:42;1.60;;;1.50;;
16189;SDS011;41754;51.498;7.540;2023-01-08T02:25:16;1.33;;;0.98;;
16189;SDS011;41754;51.498;7.540;2023-01-08T02:27:52;2.35;;;1.27;;
16189;SDS011;41754;51.498;7.540;2023-01-08T02:30:23;3.50;;;1.60;;
16189;SDS011;41754;51.498;7.540;2023-01-08T02:32:51;2.78;;;1.60;;
16189;SDS011;41754;51.498;7.540;2023-01-08T02:35:19;2.38;;;1.38;;
16189;SDS011;41754;51.498;7.540;2023-01-08T02:37:47;2.00;;;1.40;;
16189;SDS011;41754;51.498;7.540;2023-01-08T02:40:20;2.85;;;1.60;;
16189;SDS011;41754;51.498;7.540;2023-01-08T02:42:56;1.40;;;1.30;;
16189;SDS011;41754;51.498;7.540;2023-01-08T02:45:31;2.03;;;1.60;;
16189;SDS011;41754;51.498;7.540;2023-01-08T02:48:06;2.00;;;1.70;;
16189;SDS011;41754;51.498;7.540;2023-01-08T02:50:38;1.88;;;1.60;;
16189;SDS011;41754;51.498;7.540;2023-01-08T02:53:11;2.58;;;1.90;;
16189;SDS011;41754;51.498;7.540;2023-01-08T02:55:42;1.65;;;1.38;;
16189;SDS011;41754;51.498;7.540;2023-01-08T02:58:14;2.45;;;1.80;;
16189;SDS011;41754;51.498;7.540;2023-01-08T03:00:43;2.78;;;1.85;;
16189;SDS011;41754;51.498;7.540;2023-01-08T03:03:13;2.42;;;1.65;;
16189;SDS011;41754;51.498;7.540;2023-01-08T03:05:44;2.03;;;1.83;;
16189;SDS011;41754;51.498;7.540;2023-01-08T03:08:16;2.67;;;2.10;;
16189;SDS011;41754;51.498;7.540;2023-01-08T03:10:45;2.47;;;1.98;;
16189;SDS011;41754;51.498;7.540;2023-01-08T03:13:20;3.50;;;1.63;;
16189;SDS011;41754;51.498;7.540;2023-01-08T03:15:52;3.58;;;2.00;;
16189;SDS011;41754;51.498;7.540;2023-01-08T03:18:24;2.05;;;1.60;;
16189;SDS011;41754;51.498;7.540;2023-01-08T03:20:57;3.37;;;1.70;;
16189;SDS011;41754;51.498;7.540;2023-01-08T03:23:25;2.55;;;1.77;;
16189;SDS011;41754;51.498;7.540;2023-01-08T03:25:54;2.15;;;1.70;;
16189;SDS011;41754;51.498;7.540;2023-01-08T03:28:26;1.70;;;1.60;;
16189;SDS011;41754;51.498;7.540;2023-01-08T03:30:58;1.70;;;1.60;;
16189;SDS011;41754;51.498;7.540;2023-01-08T03:33:27;2.72;;;1.75;;
16189;SDS011;41754;51.498;7.540;2023-01-08T03:35:58;1.98;;;1.80;;
16189;SDS011;41754;51.498;7.540;2023-01-08T03:38:31;2.37;;;1.90;;
16189;SDS011;41754;51.498;7.540;2023-01-08T03:41:03;2.15;;;1.80;;
16189;SDS011;41754;51.498;7.540;2023-01-08T03:43:37;2.80;;;2.00;;
16189;SDS011;41754;51.498;7.540;2023-01-08T03:46:06;2.35;;;1.70;;
16189;SDS011;41754;51.498;7.540;2023-01-08T03:48:38;2.03;;;1.92;;
16189;SDS011;41754;51.498;7.540;2023-01-08T03:51:07;3.23;;;1.90;;
16189;SDS011;41754;51.498;7.540;2023-01-08T03:53:35;1.98;;;1.77;;
16189;SDS011;41754;51.498;7.540;2023-01-08T03:56:03;2.57;;;1.80;;
16189;SDS011;41754;51.498;7.540;2023-01-08T03:58:32;1.75;;;1.52;;
16189;SDS011;41754;51.498;7.540;2023-01-08T04:01:01;2.10;;;1.90;;
16189;SDS011;41754;51.498;7.540;2023-01-08T04:03:29;2.35;;;1.80;;
16189;SDS011;41754;51.498;7.540;2023-01-08T04:05:57;2.08;;;1.98;;
16189;SDS011;41754;51.498;7.540;2023-01-08T04:08:26;2.33;;;1.83;;
16189;SDS011;41754;51.498;7.540;2023-01-08T04:10:53;2.10;;;1.90;;
16189;SDS011;41754;51.498;7.540;2023-01-08T04:13:21;2.13;;;1.80;;
16189;SDS011;41754;51.498;7.540;2023-01-08T04:15:49;2.20;;;1.80;;
16189;SDS011;41754;51.498;7.540;2023-01-08T04:18:19;1.87;;;1.43;;
16189;SDS011;41754;51.498;7.540;2023-01-08T04:20:47;2.65;;;1.70;;
16189;SDS011;41754;51.498;7.540;2023-01-08T04:23:14;1.90;;;1.58;;
16189;SDS011;41754;51.498;7.540;2023-01-08T04:25:42;2.08;;;1.85;;
16189;SDS011;41754;51.498;7.540;2023-01-08T04:28:10;2.30;;;1.90;;
16189;SDS011;41754;51.498;7.540;2023-01-08T04:30:38;1.70;;;1.60;;
16189;SDS011;41754;51.498;7.540;2023-01-08T04:33:06;2.23;;;1.73;;
16189;SDS011;41754;51.498;7.540;2023-01-08T04:35:35;2.20;;;1.98;;
16189;SDS011;41754;51.498;7.540;2023-01-08T04:38:03;1.60;;;1.50;;
16189;SDS011;41754;51.498;7.540;2023-01-08T04:40:31;1.70;;;1.60;;
16189;SDS011;41754;51.498;7.540;2023-01-08T04:42:59;3.70;;;1.65;;
16189;SDS011;41754;51.498;7.540;2023-01-08T04:45:27;2.53;;;1.58;;
16189;SDS011;41754;51.498;7.540;2023-01-08T04:47:55;4.07;;;1.70;;
16189;SDS011;41754;51.498;7.540;2023-01-08T04:50:23;2.65;;;1.50;;
16189;SDS011;41754;51.498;7.540;2023-01-08T04:52:52;2.55;;;1.58;;
16189;SDS011;41754;51.498;7.540;2023-01-08T04:55:20;1.73;;;1.63;;
16189;SDS011;41754;51.498;7.540;2023-01-08T04:57:48;2.15;;;1.67;;
16189;SDS011;41754;51.498;7.540;2023-01-08T05:00:16;2.13;;;1.77;;
16189;SDS011;41754;51.498;7.540;2023-01-08T05:02:44;1.33;;;1.23;;
16189;SDS011;41754;51.498;7.540;2023-01-08T05:05:12;1.95;;;1.25;;
16189;SDS011;41754;51.498;7.540;2023-01-08T05:07:40;1.60;;;1.20;;
16189;SDS011;41754;51.498;7.540;2023-01-08T05:10:09;2.33;;;1.52;;
16189;SDS011;41754;51.498;7.540;2023-01-08T05:12:37;1.63;;;1.40;;
16189;SDS011;41754;51.498;7.540;2023-01-08T05:15:05;1.40;;;1.30;;
16189;SDS011;41754;51.498;7.540;2023-01-08T05:17:34;2.87;;;1.50;;
16189;SDS011;41754;51.498;7.540;2023-01-08T05:20:02;1.17;;;1.08;;
16189;SDS011;41754;51.498;7.540;2023-01-08T05:22:30;1.83;;;1.08;;
16189;SDS011;41754;51.498;7.540;2023-01-08T05:24:57;1.30;;;1.20;;
16189;SDS011;41754;51.498;7.540;2023-01-08T05:27:28;1.63;;;1.10;;
16189;SDS011;41754;51.498;7.540;2023-01-08T05:29:55;3.20;;;1.40;;
16189;SDS011;41754;51.498;7.540;2023-01-08T05:32:23;1.48;;;1.30;;
16189;SDS011;41754;51.498;7.540;2023-01-08T05:34:51;1.20;;;1.10;;
16189;SDS011;41754;51.498;7.540;2023-01-08T05:37:18;1.55;;;1.20;;
16189;SDS011;41754;51.498;7.540;2023-01-08T05:39:46;1.20;;;1.10;;
16189;SDS011;41754;51.498;7.540;2023-01-08T05:42:14;1.17;;;1.00;;
16189;SDS011;41754;51.498;7.540;2023-01-08T05:44:43;1.80;;;1.00;;
16189;SDS011;41754;51.498;7.540;2023-01-08T05:47:11;0.90;;;0.90;;
16189;SDS011;41754;51.498;7.540;2023-01-08T05:49:39;1.27;;;1.10;;
16189;SDS011;41754;51.498;7.540;2023-01-08T05:52:06;1.23;;;1.00;;
16189;SDS011;41754;51.498;7.540;2023-01-08T05:54:34;1.97;;;1.00;;
16189;SDS011;41754;51.498;7.540;2023-01-08T05:57:02;2.15;;;0.93;;
16189;SDS011;41754;51.498;7.540;2023-01-08T05:59:30;0.83;;;0.83;;
16189;SDS011;41754;51.498;7.540;2023-01-08T06:01:59;0.90;;;0.80;;
16189;SDS011;41754;51.498;7.540;2023-01-08T06:04:27;1.43;;;0.90;;
16189;SDS011;41754;51.498;7.540;2023-01-08T06:06:55;0.98;;;0.75;;
16189;SDS011;41754;51.498;7.540;2023-01-08T06:09:23;1.10;;;0.90;;
16189;SDS011;41754;51.498;7.540;2023-01-08T06:11:50;2.00;;;0.77;;
16189;SDS011;41754;51.498;7.540;2023-01-08T06:14:19;0.93;;;0.73;;
16189;SDS011;41754;51.498;7.540;2023-01-08T06:16:46;0.70;;;0.70;;
16189;SDS011;41754;51.498;7.540;2023-01-08T06:19:15;0.93;;;0.93;;
16189;SDS011;41754;51.498;7.540;2023-01-08T06:21:44;0.90;;;0.70;;
16189;SDS011;41754;51.498;7.540;2023-01-08T06:24:12;0.70;;;0.70;;
16189;SDS011;41754;51.498;7.540;2023-01-08T06:26:40;0.73;;;0.73;;
16189;SDS011;41754;51.498;7.540;2023-01-08T06:29:07;0.60;;;0.60;;
16189;SDS011;41754;51.498;7.540;2023-01-08T06:31:35;1.60;;;0.80;;
16189;SDS011;41754;51.498;7.540;2023-01-08T06:34:03;1.37;;;0.80;;
16189;SDS011;41754;51.498;7.540;2023-01-08T06:36:32;0.85;;;0.75;;
16189;SDS011;41754;51.498;7.540;2023-01-08T06:39:00;0.90;;;0.70;;
16189;SDS011;41754;51.498;7.540;2023-01-08T06:41:28;1.00;;;0.80;;
16189;SDS011;41754;51.498;7.540;2023-01-08T06:43:55;0.75;;;0.75;;
16189;SDS011;41754;51.498;7.540;2023-01-08T06:46:23;1.33;;;0.90;;
16189;SDS011;41754;51.498;7.540;2023-01-08T06:48:51;0.80;;;0.80;;
16189;SDS011;41754;51.498;7.540;2023-01-08T06:51:19;0.83;;;0.63;;
16189;SDS011;41754;51.498;7.540;2023-01-08T06:53:48;0.90;;;0.73;;
16189;SDS011;41754;51.498;7.540;2023-01-08T06:56:16;0.90;;;0.90;;
16189;SDS011;41754;51.498;7.540;2023-01-08T06:58:44;1.23;;;0.90;;
16189;SDS011;41754;51.498;7.540;2023-01-08T07:01:12;1.47;;;0.80;;
16189;SDS011;41754;51.498;7.540;2023-01-08T07:03:41;0.70;;;0.70;;
16189;SDS011;41754;51.498;7.540;2023-01-08T07:06:11;0.73;;;0.60;;
16189;SDS011;41754;51.498;7.540;2023-01-08T07:08:41;0.67;;;0.60;;
16189;SDS011;41754;51.498;7.540;2023-01-08T07:11:11;2.20;;;0.80;;
16189;SDS011;41754;51.498;7.540;2023-01-08T07:13:39;1.10;;;0.60;;
16189;SDS011;41754;51.498;7.540;2023-01-08T07:16:08;0.83;;;0.60;;
16189;SDS011;41754;51.498;7.540;2023-01-08T07:18:37;0.65;;;0.63;;
16189;SDS011;41754;51.498;7.540;2023-01-08T07:21:06;0.80;;;0.63;;
16189;SDS011;41754;51.498;7.540;2023-01-08T07:23:34;0.90;;;0.63;;
16189;SDS011;41754;51.498;7.540;2023-01-08T07:26:04;1.00;;;0.70;;
16189;SDS011;41754;51.498;7.540;2023-01-08T07:28:35;2.83;;;0.60;;
16189;SDS011;41754;51.498;7.540;2023-01-08T07:31:03;1.43;;;0.60;;
16189;SDS011;41754;51.498;7.540;2023-01-08T07:33:31;1.33;;;0.90;;
16189;SDS011;41754;51.498;7.540;2023-01-08T07:35:59;1.30;;;0.77;;
16189;SDS011;41754;51.498;7.540;2023-01-08T07:38:27;0.70;;;0.70;;
16189;SDS011;41754;51.498;7.540;2023-01-08T07:40:56;0.87;;;0.67;;
16189;SDS011;41754;51.498;7.540;2023-01-08T07:43:24;0.83;;;0.60;;
16189;SDS011;41754;51.498;7.540;2023-01-08T07:45:56;0.70;;;0.70;;
16189;SDS011;41754;51.498;7.540;2023-01-08T07:48:24;1.20;;;0.77;;
16189;SDS011;41754;51.498;7.540;2023-01-08T07:50:52;0.67;;;0.67;;
16189;SDS011;41754;51.498;7.540;2023-01-08T07:53:20;1.00;;;0.63;;
16189;SDS011;41754;51.498;7.540;2023-01-08T07:55:48;0.97;;;0.80;;
16189;SDS011;41754;51.498;7.540;2023-01-08T07:58:15;1.13;;;0.70;;
16189;SDS011;41754;51.498;7.540;2023-01-08T08:00:43;1.90;;;0.60;;
16189;SDS011;41754;51.498;7.540;2023-01-08T08:03:13;1.77;;;0.63;;
16189;SDS011;41754;51.498;7.540;2023-01-08T08:05:41;0.93;;;0.50;;
16189;SDS011;41754;51.498;7.540;2023-01-08T08:08:09;0.60;;;0.60;;
16189;SDS011;41754;51.498;7.540;2023-01-08T08:10:38;0.90;;;0.60;;
16189;SDS011;41754;51.498;7.540;2023-01-08T08:13:07;0.80;;;0.53;;
16189;SDS011;41754;51.498;7.540;2023-01-08T08:15:36;1.20;;;0.70;;
16189;SDS011;41754;51.498;7.540;2023-01-08T08:18:05;0.90;;;0.60;;
16189;SDS011;41754;51.498;7.540;2023-01-08T08:20:34;2.50;;;0.50;;
16189;SDS011;41754;51.498;7.540;2023-01-08T08:23:03;2.30;;;0.57;;
16189;SDS011;41754;51.498;7.540;2023-01-08T08:25:32;1.83;;;0.50;;
16189;SDS011;41754;51.498;7.540;2023-01-08T08:28:00;0.90;;;0.40;;
16189;SDS011;41754;51.498;7.540;2023-01-08T08:30:29;0.50;;;0.33;;
16189;SDS011;41754;51.498;7.540;2023-01-08T08:32:59;1.90;;;0.40;;
16189;SDS011;41754;51.498;7.540;2023-01-08T08:35:28;2.50;;;0.67;;
16189;SDS011;41754;51.498;7.540;2023-01-08T08:37:58;2.57;;;0.60;;
16189;SDS011;41754;51.498;7.540;2023-01-08T08:40:26;1.30;;;0.50;;
16189;SDS011;41754;51.498;7.540;2023-01-08T08:42:55;1.40;;;0.63;;
16189;SDS011;41754;51.498;7.540;2023-01-08T08:45:23;1.03;;;0.60;;
16189;SDS011;41754;51.498;7.540;2023-01-08T08:47:52;2.13;;;0.63;;
16189;SDS011;41754;51.498;7.540;2023-01-08T08:50:20;1.40;;;0.70;;
16189;SDS011;41754;51.498;7.540;2023-01-08T08:52:48;2.97;;;0.60;;
16189;SDS011;41754;51.498;7.540;2023-01-08T08:55:17;1.60;;;0.67;;
16189;SDS011;41754;51.498;7.540;2023-01-08T08:57:45;2.93;;;0.80;;
16189;SDS011;41754;51.498;7.540;2023-01-08T09:00:14;3.40;;;0.90;;
16189;SDS011;41754;51.498;7.540;2023-01-08T09:02:43;2.90;;;0.70;;
16189;SDS011;41754;51.498;7.540;2023-01-08T09:05:11;1.80;;;0.90;;
16189;SDS011;41754;51.498;7.540;2023-01-08T09:07:39;5.10;;;1.03;;
16189;SDS011;41754;51.498;7.540;2023-01-08T09:10:07;3.50;;;0.73;;
16189;SDS011;41754;51.498;7.540;2023-01-08T09:12:36;4.40;;;1.23;;
16189;SDS011;41754;51.498;7.540;2023-01-08T09:15:04;6.30;;;1.30;;
16189;SDS011;41754;51.498;7.540;2023-01-08T09:17:33;4.03;;;1.30;;
16189;SDS011;41754;51.498;7.540;2023-01-08T09:20:02;4.00;;;1.23;;
16189;SDS011;41754;51.498;7.540;2023-01-08T09:22:30;2.03;;;1.00;;
16189;SDS011;41754;51.498;7.540;2023-01-08T09:24:58;3.13;;;1.07;;
16189;SDS011;41754;51.498;7.540;2023-01-08T09:27:26;4.63;;;1.20;;
16189;SDS011;41754;51.498;7.540;2023-01-08T09:29:55;7.03;;;1.80;;
16189;SDS011;41754;51.498;7.540;2023-01-08T09:32:23;4.70;;;1.50;;
16189;SDS011;41754;51.498;7.540;2023-01-08T09:34:51;3.63;;;1.13;;
16189;SDS011;41754;51.498;7.540;2023-01-08T09:37:19;3.03;;;1.20;;
16189;SDS011;41754;51.498;7.540;2023-01-08T09:39:48;4.57;;;1.50;;
16189;SDS011;41754;51.498;7.540;2023-01-08T09:42:27;5.03;;;1.70;;
16189;SDS011;41754;51.498;7.540;2023-01-08T09:44:58;7.07;;;1.87;;
16189;SDS011;41754;51.498;7.540;2023-01-08T09:47:29;3.63;;;1.37;;
16189;SDS011;41754;51.498;7.540;2023-01-08T09:50:03;3.63;;;1.47;;
16189;SDS011;41754;51.498;7.540;2023-01-08T09:52:36;3.67;;;1.37;;
16189;SDS011;41754;51.498;7.540;2023-01-08T09:55:09;8.90;;;1.83;;
16189;SDS011;41754;51.498;7.540;2023-01-08T09:57:39;5.33;;;1.80;;
16189;SDS011;41754;51.498;7.540;2023-01-08T10:00:11;6.90;;;2.07;;
16189;SDS011;41754;51.498;7.540;2023-01-08T10:02:41;8.03;;;1.73;;
16189;SDS011;41754;51.498;7.540;2023-01-08T10:05:10;8.37;;;2.10;;
16189;SDS011;41754;51.498;7.540;2023-01-08T10:07:40;5.28;;;1.77;;
16189;SDS011;41754;51.498;7.540;2023-01-08T10:10:14;6.55;;;1.25;;
16189;SDS011;41754;51.498;7.540;2023-01-08T10:12:44;5.25;;;1.48;;
16189;SDS011;41754;51.498;7.540;2023-01-08T10:15:17;4.72;;;1.23;;
16189;SDS011;41754;51.498;7.540;2023-01-08T10:17:47;9.20;;;2.33;;
16189;SDS011;41754;51.498;7.540;2023-01-08T10:20:21;4.32;;;1.52;;
16189;SDS011;41754;51.498;7.540;2023-01-08T10:22:50;5.10;;;1.45;;
16189;SDS011;41754;51.498;7.540;2023-01-08T10:25:20;4.90;;;1.40;;
16189;SDS011;41754;51.498;7.540;2023-01-08T10:27:50;4.97;;;1.40;;
16189;SDS011;41754;51.498;7.540;2023-01-08T10:30:22;7.70;;;1.40;;
16189;SDS011;41754;51.498;7.540;2023-01-08T10:32:55;3.40;;;1.30;;
16189;SDS011;41754;51.498;7.540;2023-01-08T10:35:30;4.50;;;1.23;;
16189;SDS011;41754;51.498;7.540;2023-01-08T10:38:01;4.95;;;1.40;;
16189;SDS011;41754;51.498;7.540;2023-01-08T10:40:29;2.75;;;1.10;;
16189;SDS011;41754;51.498;7.540;2023-01-08T10:43:07;4.63;;;1.08;;
16189;SDS011;41754;51.498;7.540;2023-01-08T10:45:41;4.72;;;1.02;;
16189;SDS011;41754;51.498;7.540;2023-01-08T10:48:12;3.85;;;1.25;;
16189;SDS011;41754;51.498;7.540;2023-01-08T10:50:43;3.60;;;1.00;;
16189;SDS011;41754;51.498;7.540;2023-01-08T10:53:20;3.47;;;1.45;;
16189;SDS011;41754;51.498;7.540;2023-01-08T10:55:56;3.03;;;1.30;;
16189;SDS011;41754;51.498;7.540;2023-01-08T10:58:25;3.63;;;0.90;;
16189;SDS011;41754;51.498;7.540;2023-01-08T11:00:55;6.45;;;1.50;;
16189;SDS011;41754;51.498;7.540;2023-01-08T11:03:36;2.58;;;0.90;;
16189;SDS011;41754;51.498;7.540;2023-01-08T11:06:11;2.65;;;1.00;;
16189;SDS011;41754;51.498;7.540;2023-01-08T11:08:46;2.70;;;1.13;;
16189;SDS011;41754;51.498;7.540;2023-01-08T11:11:17;1.40;;;1.05;;
16189;SDS011;41754;51.498;7.540;2023-01-08T11:13:54;2.83;;;0.68;;
16189;SDS011;41754;51.498;7.540;2023-01-08T11:16:33;2.10;;;1.05;;
16189;SDS011;41754;51.498;7.540;2023-01-08T11:19:03;1.27;;;0.93;;
16189;SDS011;41754;51.498;7.540;2023-01-08T11:21:41;2.38;;;1.08;;
16189;SDS011;41754;51.498;7.540;2023-01-08T11:24:21;1.95;;;1.00;;
16189;SDS011;41754;51.498;7.540;2023-01-08T11:26:52;1.80;;;0.90;;
16189;SDS011;41754;51.498;7.540;2023-01-08T11:29:26;3.42;;;1.10;;
16189;SDS011;41754;51.498;7.540;2023-01-08T11:32:03;3.05;;;1.25;;
16189;SDS011;41754;51.498;7.540;2023-01-08T11:34:46;1.77;;;1.08;;
16189;SDS011;41754;51.498;7.540;2023-01-08T11:37:18;2.40;;;0.93;;
16189;SDS011;41754;51.498;7.540;2023-01-08T11:39:48;1.60;;;0.77;;
16189;SDS011;41754;51.498;7.540;2023-01-08T11:42:19;3.10;;;0.95;;
16189;SDS011;41754;51.498;7.540;2023-01-08T11:45:02;3.40;;;1.10;;
16189;SDS011;41754;51.498;7.540;2023-01-08T11:47:49;1.80;;;0.70;;
16189;SDS011;41754;51.498;7.540;2023-01-08T11:50:32;1.63;;;0.85;;
16189;SDS011;41754;51.498;7.540;2023-01-08T11:53:09;1.83;;;0.80;;
16189;SDS011;41754;51.498;7.540;2023-01-08T11:55:48;1.42;;;0.90;;
16189;SDS011;41754;51.498;7.540;2023-01-08T11:58:26;3.08;;;1.10;;
16189;SDS011;41754;51.498;7.540;2023-01-08T12:01:08;2.58;;;0.95;;
16189;SDS011;41754;51.498;7.540;2023-01-08T12:03:50;0.95;;;0.73;;
16189;SDS011;41754;51.498;7.540;2023-01-08T12:06:31;1.88;;;0.75;;
16189;SDS011;41754;51.498;7.540;2023-01-08T12:09:09;1.45;;;0.70;;
16189;SDS011;41754;51.498;7.540;2023-01-08T12:11:46;2.70;;;0.90;;
16189;SDS011;41754;51.498;7.540;2023-01-08T12:14:32;3.05;;;0.90;;
16189;SDS011;41754;51.498;7.540;2023-01-08T12:20:07;1.52;;;1.08;;
16189;SDS011;41754;51.498;7.540;2023-01-08T12:22:43;4.25;;;1.45;;
16189;SDS011;41754;51.498;7.540;2023-01-08T12:25:24;2.38;;;0.90;;
16189;SDS011;41754;51.498;7.540;2023-01-08T12:28:13;1.23;;;1.10;;
16189;SDS011;41754;51.498;7.540;2023-01-08T12:30:54;1.58;;;1.02;;
16189;SDS011;41754;51.498;7.540;2023-01-08T12:33:35;2.33;;;1.10;;
16189;SDS011;41754;51.498;7.540;2023-01-08T12:36:09;2.45;;;0.85;;
16189;SDS011;41754;51.498;7.540;2023-01-08T12:38:41;1.63;;;0.70;;
16189;SDS011;41754;51.498;7.540;2023-01-08T12:41:10;2.35;;;1.27;;
16189;SDS011;41754;51.498;7.540;2023-01-08T12:43:43;1.00;;;0.60;;
16189;SDS011;41754;51.498;7.540;2023-01-08T12:46:17;1.33;;;0.70;;
16189;SDS011;41754;51.498;7.540;2023-01-08T12:48:47;1.10;;;0.70;;
16189;SDS011;41754;51.498;7.540;2023-01-08T12:51:22;2.20;;;0.80;;
16189;SDS011;41754;51.498;7.540;2023-01-08T12:53:57;1.05;;;0.68;;
16189;SDS011;41754;51.498;7.540;2023-01-08T12:56:37;3.42;;;0.90;;
16189;SDS011;41754;51.498;7.540;2023-01-08T12:59:17;9.73;;;6.15;;
16189;SDS011;41754;51.498;7.540;2023-01-08T13:01:56;3.10;;;2.17;;
16189;SDS011;41754;51.498;7.540;2023-01-08T13:04:37;1.52;;;1.30;;
16189;SDS011;41754;51.498;7.540;2023-01-08T13:07:11;0.70;;;0.70;;
16189;SDS011;41754;51.498;7.540;2023-01-08T13:09:45;1.27;;;0.80;;
16189;SDS011;41754;51.498;7.540;2023-01-08T13:12:25;2.03;;;0.90;;
16189;SDS011;41754;51.498;7.540;2023-01-08T13:14:59;1.13;;;0.70;;
16189;SDS011;41754;51.498;7.540;2023-01-08T13:17:28;0.73;;;0.52;;
16189;SDS011;41754;51.498;7.540;2023-01-08T13:19:58;0.95;;;0.60;;
16189;SDS011;41754;51.498;7.540;2023-01-08T13:22:29;1.17;;;0.77;;
16189;SDS011;41754;51.498;7.540;2023-01-08T13:25:07;0.85;;;0.85;;
16189;SDS011;41754;51.498;7.540;2023-01-08T13:27:50;1.20;;;0.50;;
16189;SDS011;41754;51.498;7.540;2023-01-08T13:33:25;0.93;;;0.47;;
16189;SDS011;41754;51.498;7.540;2023-01-08T13:36:14;0.70;;;0.57;;
16189;SDS011;41754;51.498;7.540;2023-01-08T13:38:57;1.30;;;0.50;;
16189;SDS011;41754;51.498;7.540;2023-01-08T13:41:27;0.70;;;0.60;;
16189;SDS011;41754;51.498;7.540;2023-01-08T13:43:59;0.70;;;0.70;;
16189;SDS011;41754;51.498;7.540;2023-01-08T13:46:30;0.80;;;0.70;;
16189;SDS011;41754;51.498;7.540;2023-01-08T13:49:01;1.00;;;0.90;;
16189;SDS011;41754;51.498;7.540;2023-01-08T13:51:40;0.98;;;0.50;;
16189;SDS011;41754;51.498;7.540;2023-01-08T13:54:16;1.10;;;0.70;;
16189;SDS011;41754;51.498;7.540;2023-01-08T13:56:47;1.13;;;0.90;;
16189;SDS011;41754;51.498;7.540;2023-01-08T13:59:28;0.95;;;0.60;;
16189;SDS011;41754;51.498;7.540;2023-01-08T14:02:00;0.95;;;0.50;;
16189;SDS011;41754;51.498;7.540;2023-01-08T14:04:29;2.15;;;0.70;;
16189;SDS011;41754;51.498;7.540;2023-01-08T14:07:13;1.08;;;0.52;;
16189;SDS011;41754;51.498;7.540;2023-01-08T14:09:42;0.60;;;0.60;;
16189;SDS011;41754;51.498;7.540;2023-01-08T14:12:11;0.95;;;0.50;;
16189;SDS011;41754;51.498;7.540;2023-01-08T14:14:42;1.02;;;0.50;;
16189;SDS011;41754;51.498;7.540;2023-01-08T14:17:15;1.35;;;0.60;;
16189;SDS011;41754;51.498;7.540;2023-01-08T14:19:44;2.28;;;0.70;;
16189;SDS011;41754;51.498;7.540;2023-01-08T14:22:14;1.85;;;0.70;;
16189;SDS011;41754;51.498;7.540;2023-01-08T14:24:48;7.68;;;5.15;;
16189;SDS011;41754;51.498;7.540;2023-01-08T14:27:22;1.40;;;0.80;;
16189;SDS011;41754;51.498;7.540;2023-01-08T14:29:51;0.73;;;0.50;;
16189;SDS011;41754;51.498;7.540;2023-01-08T14:32:20;0.68;;;0.60;;
16189;SDS011;41754;51.498;7.540;2023-01-08T14:34:51;0.65;;;0.60;;
16189;SDS011;41754;51.498;7.540;2023-01-08T14:37:20;0.80;;;0.50;;
16189;SDS011;41754;51.498;7.540;2023-01-08T14:39:49;1.70;;;0.70;;
16189;SDS011;41754;51.498;7.540;2023-01-08T14:42:20;1.08;;;0.65;;
16189;SDS011;41754;51.498;7.540;2023-01-08T14:45:14;1.23;;;0.65;;
16189;SDS011;41754;51.498;7.540;2023-01-08T14:47:46;1.15;;;0.60;;
16189;SDS011;41754;51.498;7.540;2023-01-08T14:50:16;0.82;;;0.50;;
16189;SDS011;41754;51.498;7.540;2023-01-08T14:52:47;2.65;;;1.73;;
16189;SDS011;41754;51.498;7.540;2023-01-08T14:55:17;1.23;;;0.60;;
16189;SDS011;41754;51.498;7.540;2023-01-08T14:57:48;0.85;;;0.47;;
16189;SDS011;41754;51.498;7.540;2023-01-08T15:00:18;0.50;;;0.40;;
16189;SDS011;41754;51.498;7.540;2023-01-08T15:02:48;1.27;;;0.50;;
16189;SDS011;41754;51.498;7.540;2023-01-08T15:05:18;2.92;;;0.75;;
16189;SDS011;41754;51.498;7.540;2023-01-08T15:07:54;1.98;;;0.70;;
16189;SDS011;41754;51.498;7.540;2023-01-08T15:10:36;0.77;;;0.57;;
16189;SDS011;41754;51.498;7.540;2023-01-08T15:13:10;0.60;;;0.45;;
16189;SDS011;41754;51.498;7.540;2023-01-08T15:15:52;1.40;;;1.30;;
16189;SDS011;41754;51.498;7.540;2023-01-08T15:18:23;0.63;;;0.63;;